sensor_id;sensor_type;location;lat;lon;timestamp;P1;durP1;ratioP1;P2;durP2;ratioP2
10471;SDS011;5283;48.876;8.962;2023-06-22T00:01:13;14.63;;;10.13;;
10471;SDS011;5283;48.876;8.962;2023-06-22T00:03:40;16.67;;;10.87;;
10471;SDS011;5283;48.876;8.962;2023-06-22T00:06:07;11.33;;;9.70;;
10471;SDS011;5283;48.876;8.962;2023-06-22T00:08:34;15.70;;;10.37;;
10471;SDS011;5283;48.876;8.962;2023-06-22T00:11:00;13.13;;;11.30;;
10471;SDS011;5283;48.876;8.962;2023-06-22T00:13:27;15.23;;;11.63;;
10471;SDS011;5283;48.876;8.962;2023-06-22T00:15:54;16.53;;;10.87;;
10471;SDS011;5283;48.876;8.962;2023-06-22T00:18:21;18.67;;;11.63;;
10471;SDS011;5283;48.876;8.962;2023-06-22T00:20:47;14.10;;;12.60;;
10471;SDS011;5283;48.876;8.962;2023-06-22T00:23:14;15.73;;;12.50;;
10471;SDS011;5283;48.876;8.962;2023-06-22T00:25:43;16.33;;;12.00;;
10471;SDS011;5283;48.876;8.962;2023-06-22T00:28:10;13.57;;;11.63;;
10471;SDS011;5283;48.876;8.962;2023-06-22T00:30:36;15.57;;;14.07;;
10471;SDS011;5283;48.876;8.962;2023-06-22T00:33:03;15.93;;;13.10;;
10471;SDS011;5283;48.876;8.962;2023-06-22T00:35:33;17.17;;;13.23;;
10471;SDS011;5283;48.876;8.962;2023-06-22T00:38:00;20.27;;;14.17;;
10471;SDS011;5283;48.876;8.962;2023-06-22T00:40:28;16.17;;;14.57;;
10471;SDS011;5283;48.876;8.962;2023-06-22T00:42:55;19.60;;;14.90;;
10471;SDS011;5283;48.876;8.962;2023-06-22T00:45:22;18.30;;;14.20;;
10471;SDS011;5283;48.876;8.962;2023-06-22T00:47:53;19.03;;;14.80;;
10471;SDS011;5283;48.876;8.962;2023-06-22T00:50:23;17.60;;;15.43;;
10471;SDS011;5283;48.876;8.962;2023-06-22T00:52:52;21.13;;;17.53;;
10471;SDS011;5283;48.876;8.962;2023-06-22T00:55:22;20.80;;;18.80;;
10471;SDS011;5283;48.876;8.962;2023-06-22T00:57:50;22.00;;;19.73;;
10471;SDS011;5283;48.876;8.962;2023-06-22T01:00:17;18.20;;;16.27;;
10471;SDS011;5283;48.876;8.962;2023-06-22T01:02:46;17.87;;;16.07;;
10471;SDS011;5283;48.876;8.962;2023-06-22T01:05:13;18.97;;;15.57;;
10471;SDS011;5283;48.876;8.962;2023-06-22T01:13:26;20.07;;;13.97;;
10471;SDS011;5283;48.876;8.962;2023-06-22T01:16:16;15.87;;;13.43;;
10471;SDS011;5283;48.876;8.962;2023-06-22T01:18:49;16.70;;;14.30;;
10471;SDS011;5283;48.876;8.962;2023-06-22T01:21:19;18.03;;;14.50;;
10471;SDS011;5283;48.876;8.962;2023-06-22T01:23:51;19.53;;;15.07;;
10471;SDS011;5283;48.876;8.962;2023-06-22T01:26:43;20.20;;;13.77;;
10471;SDS011;5283;48.876;8.962;2023-06-22T01:29:32;22.10;;;13.37;;
10471;SDS011;5283;48.876;8.962;2023-06-22T01:32:00;21.90;;;13.90;;
10471;SDS011;5283;48.876;8.962;2023-06-22T01:34:30;17.97;;;14.03;;
10471;SDS011;5283;48.876;8.962;2023-06-22T01:36:58;16.23;;;14.47;;
10471;SDS011;5283;48.876;8.962;2023-06-22T01:39:27;21.37;;;14.63;;
10471;SDS011;5283;48.876;8.962;2023-06-22T01:41:54;20.27;;;15.67;;
10471;SDS011;5283;48.876;8.962;2023-06-22T01:44:21;18.83;;;15.53;;
10471;SDS011;5283;48.876;8.962;2023-06-22T01:46:50;18.30;;;16.03;;
10471;SDS011;5283;48.876;8.962;2023-06-22T01:49:19;20.77;;;18.07;;
10471;SDS011;5283;48.876;8.962;2023-06-22T01:51:46;20.40;;;16.03;;
10471;SDS011;5283;48.876;8.962;2023-06-22T01:54:13;20.50;;;15.13;;
10471;SDS011;5283;48.876;8.962;2023-06-22T01:56:39;18.90;;;14.97;;
10471;SDS011;5283;48.876;8.962;2023-06-22T01:59:11;17.07;;;15.10;;
10471;SDS011;5283;48.876;8.962;2023-06-22T02:01:45;24.57;;;15.60;;
10471;SDS011;5283;48.876;8.962;2023-06-22T02:04:21;30.43;;;17.00;;
10471;SDS011;5283;48.876;8.962;2023-06-22T02:06:56;23.10;;;16.87;;
10471;SDS011;5283;48.876;8.962;2023-06-22T02:09:25;26.20;;;16.73;;
10471;SDS011;5283;48.876;8.962;2023-06-22T02:11:56;22.30;;;15.77;;
10471;SDS011;5283;48.876;8.962;2023-06-22T02:14:24;22.77;;;15.57;;
10471;SDS011;5283;48.876;8.962;2023-06-22T02:16:51;21.13;;;15.20;;
10471;SDS011;5283;48.876;8.962;2023-06-22T02:19:22;18.00;;;14.63;;
10471;SDS011;5283;48.876;8.962;2023-06-22T02:21:50;21.70;;;15.53;;
10471;SDS011;5283;48.876;8.962;2023-06-22T02:24:17;22.20;;;15.77;;
10471;SDS011;5283;48.876;8.962;2023-06-22T02:26:44;22.00;;;15.87;;
10471;SDS011;5283;48.876;8.962;2023-06-22T02:29:12;24.17;;;14.27;;
10471;SDS011;5283;48.876;8.962;2023-06-22T02:31:38;26.00;;;13.60;;
10471;SDS011;5283;48.876;8.962;2023-06-22T02:34:05;22.97;;;14.03;;
10471;SDS011;5283;48.876;8.962;2023-06-22T02:36:32;26.27;;;16.13;;
10471;SDS011;5283;48.876;8.962;2023-06-22T02:38:59;21.93;;;17.00;;
10471;SDS011;5283;48.876;8.962;2023-06-22T02:41:27;21.20;;;17.80;;
10471;SDS011;5283;48.876;8.962;2023-06-22T02:43:54;25.03;;;16.70;;
10471;SDS011;5283;48.876;8.962;2023-06-22T02:46:21;27.90;;;17.93;;
10471;SDS011;5283;48.876;8.962;2023-06-22T02:48:48;22.37;;;17.13;;
10471;SDS011;5283;48.876;8.962;2023-06-22T02:51:15;21.73;;;18.03;;
10471;SDS011;5283;48.876;8.962;2023-06-22T02:53:41;21.43;;;17.33;;
10471;SDS011;5283;48.876;8.962;2023-06-22T02:56:11;24.60;;;15.43;;
10471;SDS011;5283;48.876;8.962;2023-06-22T02:58:38;19.50;;;15.80;;
10471;SDS011;5283;48.876;8.962;2023-06-22T03:01:05;19.97;;;17.33;;
10471;SDS011;5283;48.876;8.962;2023-06-22T03:03:32;22.53;;;19.10;;
10471;SDS011;5283;48.876;8.962;2023-06-22T03:05:59;21.23;;;17.70;;
10471;SDS011;5283;48.876;8.962;2023-06-22T03:08:28;20.10;;;17.93;;
10471;SDS011;5283;48.876;8.962;2023-06-22T03:10:55;24.07;;;16.97;;
10471;SDS011;5283;48.876;8.962;2023-06-22T03:13:23;31.53;;;17.10;;
10471;SDS011;5283;48.876;8.962;2023-06-22T03:15:50;23.90;;;15.90;;
10471;SDS011;5283;48.876;8.962;2023-06-22T03:18:17;23.03;;;16.77;;
10471;SDS011;5283;48.876;8.962;2023-06-22T03:20:43;20.53;;;16.10;;
10471;SDS011;5283;48.876;8.962;2023-06-22T03:23:10;29.93;;;16.90;;
10471;SDS011;5283;48.876;8.962;2023-06-22T03:25:37;22.07;;;16.77;;
10471;SDS011;5283;48.876;8.962;2023-06-22T03:28:04;21.17;;;16.77;;
10471;SDS011;5283;48.876;8.962;2023-06-22T03:30:30;25.40;;;17.57;;
10471;SDS011;5283;48.876;8.962;2023-06-22T03:32:57;21.13;;;17.20;;
10471;SDS011;5283;48.876;8.962;2023-06-22T03:35:24;23.03;;;17.97;;
10471;SDS011;5283;48.876;8.962;2023-06-22T03:37:51;18.70;;;16.77;;
10471;SDS011;5283;48.876;8.962;2023-06-22T03:40:17;22.10;;;15.90;;
10471;SDS011;5283;48.876;8.962;2023-06-22T03:42:45;26.70;;;16.43;;
10471;SDS011;5283;48.876;8.962;2023-06-22T03:45:12;20.17;;;16.83;;
10471;SDS011;5283;48.876;8.962;2023-06-22T03:47:39;24.03;;;15.17;;
10471;SDS011;5283;48.876;8.962;2023-06-22T03:50:07;26.00;;;16.13;;
10471;SDS011;5283;48.876;8.962;2023-06-22T03:52:34;21.43;;;16.00;;
10471;SDS011;5283;48.876;8.962;2023-06-22T03:55:01;24.50;;;15.57;;
10471;SDS011;5283;48.876;8.962;2023-06-22T03:57:27;29.00;;;16.73;;
10471;SDS011;5283;48.876;8.962;2023-06-22T03:59:56;27.70;;;17.33;;
10471;SDS011;5283;48.876;8.962;2023-06-22T04:02:23;24.27;;;17.90;;
10471;SDS011;5283;48.876;8.962;2023-06-22T04:04:50;20.93;;;16.90;;
10471;SDS011;5283;48.876;8.962;2023-06-22T04:07:17;19.67;;;16.27;;
10471;SDS011;5283;48.876;8.962;2023-06-22T04:09:44;18.63;;;16.17;;
10471;SDS011;5283;48.876;8.962;2023-06-22T04:12:10;21.63;;;16.23;;
10471;SDS011;5283;48.876;8.962;2023-06-22T04:14:37;20.70;;;16.67;;
10471;SDS011;5283;48.876;8.962;2023-06-22T04:17:04;16.70;;;15.10;;
10471;SDS011;5283;48.876;8.962;2023-06-22T04:19:31;16.37;;;13.33;;
10471;SDS011;5283;48.876;8.962;2023-06-22T04:21:58;14.80;;;11.83;;
10471;SDS011;5283;48.876;8.962;2023-06-22T04:24:25;13.30;;;10.83;;
10471;SDS011;5283;48.876;8.962;2023-06-22T04:26:51;15.97;;;9.80;;
10471;SDS011;5283;48.876;8.962;2023-06-22T04:29:21;11.80;;;9.30;;
10471;SDS011;5283;48.876;8.962;2023-06-22T04:31:54;8.70;;;7.90;;
10471;SDS011;5283;48.876;8.962;2023-06-22T04:34:29;11.40;;;8.27;;
10471;SDS011;5283;48.876;8.962;2023-06-22T04:36:55;12.90;;;8.33;;
10471;SDS011;5283;48.876;8.962;2023-06-22T04:39:22;10.50;;;7.60;;
10471;SDS011;5283;48.876;8.962;2023-06-22T04:41:50;10.73;;;7.33;;
10471;SDS011;5283;48.876;8.962;2023-06-22T04:44:18;9.40;;;7.47;;
10471;SDS011;5283;48.876;8.962;2023-06-22T04:46:54;10.90;;;7.17;;
10471;SDS011;5283;48.876;8.962;2023-06-22T04:49:30;11.17;;;7.00;;
10471;SDS011;5283;48.876;8.962;2023-06-22T04:52:02;12.10;;;7.17;;
10471;SDS011;5283;48.876;8.962;2023-06-22T04:54:30;7.47;;;6.67;;
10471;SDS011;5283;48.876;8.962;2023-06-22T04:56:59;6.60;;;6.00;;
10471;SDS011;5283;48.876;8.962;2023-06-22T04:59:27;9.50;;;6.03;;
10471;SDS011;5283;48.876;8.962;2023-06-22T05:02:02;7.53;;;5.80;;
10471;SDS011;5283;48.876;8.962;2023-06-22T05:04:29;10.47;;;6.30;;
10471;SDS011;5283;48.876;8.962;2023-06-22T05:06:59;7.60;;;5.40;;
10471;SDS011;5283;48.876;8.962;2023-06-22T05:09:26;9.87;;;6.43;;
10471;SDS011;5283;48.876;8.962;2023-06-22T05:11:53;7.37;;;6.30;;
10471;SDS011;5283;48.876;8.962;2023-06-22T05:14:20;8.10;;;6.33;;
10471;SDS011;5283;48.876;8.962;2023-06-22T05:16:47;8.83;;;6.77;;
10471;SDS011;5283;48.876;8.962;2023-06-22T05:19:14;6.77;;;5.70;;
10471;SDS011;5283;48.876;8.962;2023-06-22T05:21:41;9.47;;;6.80;;
10471;SDS011;5283;48.876;8.962;2023-06-22T05:24:08;8.40;;;6.87;;
10471;SDS011;5283;48.876;8.962;2023-06-22T05:26:35;9.43;;;7.57;;
10471;SDS011;5283;48.876;8.962;2023-06-22T05:29:02;9.80;;;7.87;;
10471;SDS011;5283;48.876;8.962;2023-06-22T05:31:29;8.87;;;7.93;;
10471;SDS011;5283;48.876;8.962;2023-06-22T05:33:56;8.20;;;7.40;;
10471;SDS011;5283;48.876;8.962;2023-06-22T05:36:23;8.60;;;7.40;;
10471;SDS011;5283;48.876;8.962;2023-06-22T05:38:51;9.83;;;7.73;;
10471;SDS011;5283;48.876;8.962;2023-06-22T05:41:18;10.53;;;7.70;;
10471;SDS011;5283;48.876;8.962;2023-06-22T05:43:45;8.90;;;8.00;;
10471;SDS011;5283;48.876;8.962;2023-06-22T05:46:12;9.73;;;7.70;;
10471;SDS011;5283;48.876;8.962;2023-06-22T05:48:39;10.57;;;7.40;;
10471;SDS011;5283;48.876;8.962;2023-06-22T05:51:06;7.77;;;7.03;;
10471;SDS011;5283;48.876;8.962;2023-06-22T05:53:33;8.60;;;7.80;;
10471;SDS011;5283;48.876;8.962;2023-06-22T05:55:59;8.77;;;7.83;;
10471;SDS011;5283;48.876;8.962;2023-06-22T05:58:26;9.40;;;8.47;;
10471;SDS011;5283;48.876;8.962;2023-06-22T06:00:53;8.73;;;7.83;;
10471;SDS011;5283;48.876;8.962;2023-06-22T06:03:20;9.93;;;8.30;;
10471;SDS011;5283;48.876;8.962;2023-06-22T06:05:46;8.43;;;7.63;;
10471;SDS011;5283;48.876;8.962;2023-06-22T06:08:13;10.23;;;7.87;;
10471;SDS011;5283;48.876;8.962;2023-06-22T06:10:40;12.13;;;7.70;;
10471;SDS011;5283;48.876;8.962;2023-06-22T06:13:07;9.30;;;8.33;;
10471;SDS011;5283;48.876;8.962;2023-06-22T06:15:34;7.72;;;6.90;;
10471;SDS011;5283;48.876;8.962;2023-06-22T06:18:01;8.10;;;7.30;;
10471;SDS011;5283;48.876;8.962;2023-06-22T06:20:30;9.88;;;7.57;;
10471;SDS011;5283;48.876;8.962;2023-06-22T06:22:57;8.75;;;7.40;;
10471;SDS011;5283;48.876;8.962;2023-06-22T06:25:24;8.48;;;7.70;;
10471;SDS011;5283;48.876;8.962;2023-06-22T06:27:52;8.40;;;7.60;;
10471;SDS011;5283;48.876;8.962;2023-06-22T06:30:20;8.23;;;7.53;;
10471;SDS011;5283;48.876;8.962;2023-06-22T06:32:49;8.90;;;7.50;;
10471;SDS011;5283;48.876;8.962;2023-06-22T06:35:16;8.43;;;7.53;;
10471;SDS011;5283;48.876;8.962;2023-06-22T06:37:45;8.88;;;7.55;;
10471;SDS011;5283;48.876;8.962;2023-06-22T06:40:12;7.88;;;6.85;;
10471;SDS011;5283;48.876;8.962;2023-06-22T06:42:41;7.43;;;6.60;;
10471;SDS011;5283;48.876;8.962;2023-06-22T06:45:17;8.25;;;7.15;;
10471;SDS011;5283;48.876;8.962;2023-06-22T06:47:49;7.70;;;6.97;;
10471;SDS011;5283;48.876;8.962;2023-06-22T06:50:17;9.00;;;6.70;;
10471;SDS011;5283;48.876;8.962;2023-06-22T06:52:45;6.47;;;5.95;;
10471;SDS011;5283;48.876;8.962;2023-06-22T06:55:11;8.50;;;6.70;;
10471;SDS011;5283;48.876;8.962;2023-06-22T06:57:40;7.60;;;6.43;;
10471;SDS011;5283;48.876;8.962;2023-06-22T07:00:09;7.13;;;6.50;;
10471;SDS011;5283;48.876;8.962;2023-06-22T07:02:39;7.50;;;6.65;;
10471;SDS011;5283;48.876;8.962;2023-06-22T07:05:10;8.00;;;6.63;;
10471;SDS011;5283;48.876;8.962;2023-06-22T07:07:38;7.70;;;7.00;;
10471;SDS011;5283;48.876;8.962;2023-06-22T07:10:05;7.80;;;7.05;;
10471;SDS011;5283;48.876;8.962;2023-06-22T07:12:33;7.22;;;6.55;;
10471;SDS011;5283;48.876;8.962;2023-06-22T07:15:01;8.30;;;6.90;;
10471;SDS011;5283;48.876;8.962;2023-06-22T07:17:29;6.88;;;6.15;;
10471;SDS011;5283;48.876;8.962;2023-06-22T07:19:56;9.35;;;7.60;;
10471;SDS011;5283;48.876;8.962;2023-06-22T07:22:23;7.10;;;6.40;;
10471;SDS011;5283;48.876;8.962;2023-06-22T07:24:49;7.60;;;6.45;;
10471;SDS011;5283;48.876;8.962;2023-06-22T07:27:16;9.57;;;6.57;;
10471;SDS011;5283;48.876;8.962;2023-06-22T07:29:45;10.82;;;6.90;;
10471;SDS011;5283;48.876;8.962;2023-06-22T07:32:12;8.15;;;6.68;;
10471;SDS011;5283;48.876;8.962;2023-06-22T07:34:39;7.18;;;6.47;;
10471;SDS011;5283;48.876;8.962;2023-06-22T07:37:06;7.95;;;7.10;;
10471;SDS011;5283;48.876;8.962;2023-06-22T07:39:32;7.60;;;6.20;;
10471;SDS011;5283;48.876;8.962;2023-06-22T07:41:59;6.97;;;6.28;;
10471;SDS011;5283;48.876;8.962;2023-06-22T07:44:26;9.57;;;6.90;;
10471;SDS011;5283;48.876;8.962;2023-06-22T07:46:53;8.77;;;6.25;;
10471;SDS011;5283;48.876;8.962;2023-06-22T07:49:19;7.25;;;6.25;;
10471;SDS011;5283;48.876;8.962;2023-06-22T07:51:46;6.75;;;5.90;;
10471;SDS011;5283;48.876;8.962;2023-06-22T07:54:13;7.97;;;6.78;;
10471;SDS011;5283;48.876;8.962;2023-06-22T07:56:42;11.40;;;6.22;;
10471;SDS011;5283;48.876;8.962;2023-06-22T07:59:09;6.45;;;5.82;;
10471;SDS011;5283;48.876;8.962;2023-06-22T08:01:36;10.23;;;5.97;;
10471;SDS011;5283;48.876;8.962;2023-06-22T08:04:02;7.80;;;6.00;;
10471;SDS011;5283;48.876;8.962;2023-06-22T08:06:30;9.88;;;6.40;;
10471;SDS011;5283;48.876;8.962;2023-06-22T08:08:56;8.35;;;5.47;;
10471;SDS011;5283;48.876;8.962;2023-06-22T08:11:25;7.03;;;5.53;;
10471;SDS011;5283;48.876;8.962;2023-06-22T08:13:52;7.20;;;5.35;;
10471;SDS011;5283;48.876;8.962;2023-06-22T08:16:19;6.72;;;5.18;;
10471;SDS011;5283;48.876;8.962;2023-06-22T08:18:45;5.95;;;4.82;;
10471;SDS011;5283;48.876;8.962;2023-06-22T08:21:12;6.15;;;4.78;;
10471;SDS011;5283;48.876;8.962;2023-06-22T08:23:39;9.27;;;5.65;;
10471;SDS011;5283;48.876;8.962;2023-06-22T08:26:06;7.60;;;5.60;;
10471;SDS011;5283;48.876;8.962;2023-06-22T08:28:32;6.80;;;5.50;;
10471;SDS011;5283;48.876;8.962;2023-06-22T08:30:59;7.55;;;5.50;;
10471;SDS011;5283;48.876;8.962;2023-06-22T08:33:28;7.65;;;6.13;;
10471;SDS011;5283;48.876;8.962;2023-06-22T08:35:57;6.10;;;5.00;;
10471;SDS011;5283;48.876;8.962;2023-06-22T08:38:25;8.05;;;5.32;;
10471;SDS011;5283;48.876;8.962;2023-06-22T08:40:52;8.50;;;6.10;;
10471;SDS011;5283;48.876;8.962;2023-06-22T08:43:19;11.65;;;6.07;;
10471;SDS011;5283;48.876;8.962;2023-06-22T08:45:45;13.90;;;6.30;;
10471;SDS011;5283;48.876;8.962;2023-06-22T08:48:13;7.25;;;5.70;;
10471;SDS011;5283;48.876;8.962;2023-06-22T08:50:40;5.85;;;5.20;;
10471;SDS011;5283;48.876;8.962;2023-06-22T08:53:06;11.65;;;5.47;;
10471;SDS011;5283;48.876;8.962;2023-06-22T08:55:33;8.40;;;5.87;;
10471;SDS011;5283;48.876;8.962;2023-06-22T08:58:00;9.47;;;6.60;;
10471;SDS011;5283;48.876;8.962;2023-06-22T09:00:27;11.97;;;7.10;;
10471;SDS011;5283;48.876;8.962;2023-06-22T09:02:55;9.10;;;6.00;;
10471;SDS011;5283;48.876;8.962;2023-06-22T09:05:25;8.07;;;6.17;;
10471;SDS011;5283;48.876;8.962;2023-06-22T09:07:52;7.77;;;6.00;;
10471;SDS011;5283;48.876;8.962;2023-06-22T09:10:21;10.97;;;5.87;;
10471;SDS011;5283;48.876;8.962;2023-06-22T09:12:47;6.83;;;5.07;;
10471;SDS011;5283;48.876;8.962;2023-06-22T09:15:14;7.80;;;6.23;;
10471;SDS011;5283;48.876;8.962;2023-06-22T09:17:42;6.60;;;5.50;;
10471;SDS011;5283;48.876;8.962;2023-06-22T09:20:09;6.63;;;5.67;;
10471;SDS011;5283;48.876;8.962;2023-06-22T09:22:37;7.40;;;5.77;;
10471;SDS011;5283;48.876;8.962;2023-06-22T09:25:04;7.77;;;5.67;;
10471;SDS011;5283;48.876;8.962;2023-06-22T09:27:32;7.13;;;5.23;;
10471;SDS011;5283;48.876;8.962;2023-06-22T09:29:59;10.50;;;5.87;;
10471;SDS011;5283;48.876;8.962;2023-06-22T09:32:25;9.67;;;5.60;;
10471;SDS011;5283;48.876;8.962;2023-06-22T09:34:52;9.60;;;5.20;;
10471;SDS011;5283;48.876;8.962;2023-06-22T09:37:19;10.20;;;5.90;;
10471;SDS011;5283;48.876;8.962;2023-06-22T09:39:46;8.00;;;5.90;;
10471;SDS011;5283;48.876;8.962;2023-06-22T09:42:13;8.57;;;5.70;;
10471;SDS011;5283;48.876;8.962;2023-06-22T09:44:39;9.40;;;5.53;;
10471;SDS011;5283;48.876;8.962;2023-06-22T09:47:06;15.70;;;5.88;;
10471;SDS011;5283;48.876;8.962;2023-06-22T09:49:33;13.98;;;5.72;;
10471;SDS011;5283;48.876;8.962;2023-06-22T09:52:11;13.35;;;6.32;;
10471;SDS011;5283;48.876;8.962;2023-06-22T09:54:38;12.90;;;5.65;;
10471;SDS011;5283;48.876;8.962;2023-06-22T09:57:04;16.30;;;5.35;;
10471;SDS011;5283;48.876;8.962;2023-06-22T09:59:31;10.73;;;5.55;;
10471;SDS011;5283;48.876;8.962;2023-06-22T10:01:58;13.70;;;6.07;;
10471;SDS011;5283;48.876;8.962;2023-06-22T10:04:25;11.38;;;6.00;;
10471;SDS011;5283;48.876;8.962;2023-06-22T10:06:52;11.40;;;5.47;;
10471;SDS011;5283;48.876;8.962;2023-06-22T10:09:18;11.43;;;5.90;;
10471;SDS011;5283;48.876;8.962;2023-06-22T10:11:45;15.25;;;5.68;;
10471;SDS011;5283;48.876;8.962;2023-06-22T10:14:12;11.02;;;5.43;;
10471;SDS011;5283;48.876;8.962;2023-06-22T10:16:38;10.63;;;5.75;;
10471;SDS011;5283;48.876;8.962;2023-06-22T10:19:07;10.90;;;6.22;;
10471;SDS011;5283;48.876;8.962;2023-06-22T10:21:33;8.25;;;5.53;;
10471;SDS011;5283;48.876;8.962;2023-06-22T10:24:01;10.98;;;5.85;;
10471;SDS011;5283;48.876;8.962;2023-06-22T10:26:35;9.10;;;6.15;;
10471;SDS011;5283;48.876;8.962;2023-06-22T10:29:02;9.27;;;6.05;;
10471;SDS011;5283;48.876;8.962;2023-06-22T10:31:32;8.02;;;5.53;;
10471;SDS011;5283;48.876;8.962;2023-06-22T10:33:59;7.93;;;5.60;;
10471;SDS011;5283;48.876;8.962;2023-06-22T10:36:26;9.25;;;5.85;;
10471;SDS011;5283;48.876;8.962;2023-06-22T10:38:53;11.48;;;5.75;;
10471;SDS011;5283;48.876;8.962;2023-06-22T10:41:20;9.45;;;5.95;;
10471;SDS011;5283;48.876;8.962;2023-06-22T10:43:47;8.57;;;5.88;;
10471;SDS011;5283;48.876;8.962;2023-06-22T10:46:13;9.63;;;5.85;;
10471;SDS011;5283;48.876;8.962;2023-06-22T10:48:40;11.38;;;6.07;;
10471;SDS011;5283;48.876;8.962;2023-06-22T10:51:07;8.65;;;5.63;;
10471;SDS011;5283;48.876;8.962;2023-06-22T10:53:33;8.45;;;5.60;;
10471;SDS011;5283;48.876;8.962;2023-06-22T10:56:00;7.65;;;5.82;;
10471;SDS011;5283;48.876;8.962;2023-06-22T10:58:27;13.98;;;6.05;;
10471;SDS011;5283;48.876;8.962;2023-06-22T11:00:54;9.25;;;6.20;;
10471;SDS011;5283;48.876;8.962;2023-06-22T11:03:20;10.30;;;6.00;;
10471;SDS011;5283;48.876;8.962;2023-06-22T11:05:47;9.73;;;5.88;;
10471;SDS011;5283;48.876;8.962;2023-06-22T11:08:14;7.75;;;5.53;;
10471;SDS011;5283;48.876;8.962;2023-06-22T11:10:41;8.45;;;6.30;;
10471;SDS011;5283;48.876;8.962;2023-06-22T11:13:08;8.27;;;6.28;;
10471;SDS011;5283;48.876;8.962;2023-06-22T11:15:36;9.30;;;6.75;;
10471;SDS011;5283;48.876;8.962;2023-06-22T11:18:06;11.63;;;6.40;;
10471;SDS011;5283;48.876;8.962;2023-06-22T11:20:33;9.77;;;6.15;;
10471;SDS011;5283;48.876;8.962;2023-06-22T11:23:05;12.48;;;6.07;;
10471;SDS011;5283;48.876;8.962;2023-06-22T11:25:32;13.38;;;9.48;;
10471;SDS011;5283;48.876;8.962;2023-06-22T11:28:02;10.32;;;6.30;;
10471;SDS011;5283;48.876;8.962;2023-06-22T11:30:29;7.53;;;5.82;;
10471;SDS011;5283;48.876;8.962;2023-06-22T11:32:56;13.43;;;10.57;;
10471;SDS011;5283;48.876;8.962;2023-06-22T11:35:25;10.43;;;6.50;;
10471;SDS011;5283;48.876;8.962;2023-06-22T11:37:52;10.73;;;6.10;;
10471;SDS011;5283;48.876;8.962;2023-06-22T11:40:18;9.38;;;6.15;;
10471;SDS011;5283;48.876;8.962;2023-06-22T11:42:45;12.73;;;6.15;;
10471;SDS011;5283;48.876;8.962;2023-06-22T11:45:12;11.75;;;6.30;;
10471;SDS011;5283;48.876;8.962;2023-06-22T11:47:39;10.45;;;6.75;;
10471;SDS011;5283;48.876;8.962;2023-06-22T11:50:06;13.15;;;6.13;;
10471;SDS011;5283;48.876;8.962;2023-06-22T11:52:33;11.82;;;6.22;;
10471;SDS011;5283;48.876;8.962;2023-06-22T11:55:02;10.50;;;5.75;;
10471;SDS011;5283;48.876;8.962;2023-06-22T11:57:35;8.90;;;6.00;;
10471;SDS011;5283;48.876;8.962;2023-06-22T12:00:03;9.70;;;6.05;;
10471;SDS011;5283;48.876;8.962;2023-06-22T12:02:32;11.13;;;6.00;;
10471;SDS011;5283;48.876;8.962;2023-06-22T12:04:59;8.73;;;5.45;;
10471;SDS011;5283;48.876;8.962;2023-06-22T12:07:26;7.82;;;5.82;;
10471;SDS011;5283;48.876;8.962;2023-06-22T12:09:53;8.10;;;5.97;;
10471;SDS011;5283;48.876;8.962;2023-06-22T12:12:19;9.52;;;5.63;;
10471;SDS011;5283;48.876;8.962;2023-06-22T12:14:46;9.38;;;5.63;;
10471;SDS011;5283;48.876;8.962;2023-06-22T12:17:13;11.57;;;5.88;;
10471;SDS011;5283;48.876;8.962;2023-06-22T12:19:39;9.07;;;5.88;;
10471;SDS011;5283;48.876;8.962;2023-06-22T12:22:06;7.95;;;5.82;;
10471;SDS011;5283;48.876;8.962;2023-06-22T12:24:33;12.27;;;6.22;;
10471;SDS011;5283;48.876;8.962;2023-06-22T12:27:00;10.10;;;5.65;;
10471;SDS011;5283;48.876;8.962;2023-06-22T12:29:29;7.55;;;5.70;;
10471;SDS011;5283;48.876;8.962;2023-06-22T12:31:56;10.45;;;6.28;;
10471;SDS011;5283;48.876;8.962;2023-06-22T12:34:23;9.52;;;5.70;;
10471;SDS011;5283;48.876;8.962;2023-06-22T12:36:49;9.70;;;5.82;;
10471;SDS011;5283;48.876;8.962;2023-06-22T12:39:16;9.90;;;5.88;;
10471;SDS011;5283;48.876;8.962;2023-06-22T12:41:43;11.52;;;5.78;;
10471;SDS011;5283;48.876;8.962;2023-06-22T12:44:09;10.10;;;5.50;;
10471;SDS011;5283;48.876;8.962;2023-06-22T12:46:36;11.65;;;5.88;;
10471;SDS011;5283;48.876;8.962;2023-06-22T12:49:04;11.15;;;5.43;;
10471;SDS011;5283;48.876;8.962;2023-06-22T12:51:31;9.93;;;6.22;;
10471;SDS011;5283;48.876;8.962;2023-06-22T12:53:58;12.80;;;6.13;;
10471;SDS011;5283;48.876;8.962;2023-06-22T12:56:25;13.02;;;5.85;;
10471;SDS011;5283;48.876;8.962;2023-06-22T12:58:51;9.15;;;5.85;;
10471;SDS011;5283;48.876;8.962;2023-06-22T13:01:18;11.18;;;5.90;;
10471;SDS011;5283;48.876;8.962;2023-06-22T13:03:45;9.02;;;5.82;;
10471;SDS011;5283;48.876;8.962;2023-06-22T13:06:12;11.25;;;6.22;;
10471;SDS011;5283;48.876;8.962;2023-06-22T13:08:39;10.07;;;6.50;;
10471;SDS011;5283;48.876;8.962;2023-06-22T13:11:08;14.10;;;6.13;;
10471;SDS011;5283;48.876;8.962;2023-06-22T13:13:35;11.60;;;6.15;;
10471;SDS011;5283;48.876;8.962;2023-06-22T13:16:02;10.00;;;6.10;;
10471;SDS011;5283;48.876;8.962;2023-06-22T13:18:29;10.82;;;5.95;;
10471;SDS011;5283;48.876;8.962;2023-06-22T13:20:55;11.00;;;5.90;;
10471;SDS011;5283;48.876;8.962;2023-06-22T13:23:24;11.10;;;5.90;;
10471;SDS011;5283;48.876;8.962;2023-06-22T13:25:51;12.70;;;5.93;;
10471;SDS011;5283;48.876;8.962;2023-06-22T13:28:17;12.98;;;6.20;;
10471;SDS011;5283;48.876;8.962;2023-06-22T13:30:52;12.85;;;6.68;;
10471;SDS011;5283;48.876;8.962;2023-06-22T13:33:19;8.35;;;5.75;;
10471;SDS011;5283;48.876;8.962;2023-06-22T13:35:46;13.35;;;6.47;;
10471;SDS011;5283;48.876;8.962;2023-06-22T13:38:12;13.13;;;6.53;;
10471;SDS011;5283;48.876;8.962;2023-06-22T13:40:39;12.30;;;6.70;;
10471;SDS011;5283;48.876;8.962;2023-06-22T13:43:06;11.32;;;6.07;;
10471;SDS011;5283;48.876;8.962;2023-06-22T13:45:32;11.38;;;5.97;;
10471;SDS011;5283;48.876;8.962;2023-06-22T13:47:59;12.88;;;6.30;;
10471;SDS011;5283;48.876;8.962;2023-06-22T13:50:26;11.57;;;5.88;;
10471;SDS011;5283;48.876;8.962;2023-06-22T13:52:55;12.60;;;6.28;;
10471;SDS011;5283;48.876;8.962;2023-06-22T13:55:22;10.93;;;6.53;;
10471;SDS011;5283;48.876;8.962;2023-06-22T13:57:49;11.30;;;6.20;;
10471;SDS011;5283;48.876;8.962;2023-06-22T14:00:17;11.82;;;6.43;;
10471;SDS011;5283;48.876;8.962;2023-06-22T14:02:44;11.23;;;6.07;;
10471;SDS011;5283;48.876;8.962;2023-06-22T14:05:11;11.63;;;6.25;;
10471;SDS011;5283;48.876;8.962;2023-06-22T14:07:38;11.05;;;5.93;;
10471;SDS011;5283;48.876;8.962;2023-06-22T14:10:05;10.85;;;6.10;;
10471;SDS011;5283;48.876;8.962;2023-06-22T14:12:32;10.43;;;5.88;;
10471;SDS011;5283;48.876;8.962;2023-06-22T14:14:59;8.90;;;6.00;;
10471;SDS011;5283;48.876;8.962;2023-06-22T14:17:26;12.77;;;5.93;;
10471;SDS011;5283;48.876;8.962;2023-06-22T14:19:53;14.00;;;6.53;;
10471;SDS011;5283;48.876;8.962;2023-06-22T14:22:20;12.45;;;6.28;;
10471;SDS011;5283;48.876;8.962;2023-06-22T14:24:47;14.27;;;5.82;;
10471;SDS011;5283;48.876;8.962;2023-06-22T14:27:14;15.18;;;5.63;;
10471;SDS011;5283;48.876;8.962;2023-06-22T14:29:41;9.82;;;5.00;;
10471;SDS011;5283;48.876;8.962;2023-06-22T14:32:09;13.02;;;4.50;;
10471;SDS011;5283;48.876;8.962;2023-06-22T14:34:35;8.20;;;4.00;;
10471;SDS011;5283;48.876;8.962;2023-06-22T14:37:08;12.05;;;4.43;;
10471;SDS011;5283;48.876;8.962;2023-06-22T14:39:36;11.57;;;3.80;;
10471;SDS011;5283;48.876;8.962;2023-06-22T14:42:02;13.13;;;4.30;;
10471;SDS011;5283;48.876;8.962;2023-06-22T14:44:32;12.43;;;4.00;;
10471;SDS011;5283;48.876;8.962;2023-06-22T14:46:59;9.95;;;3.63;;
10471;SDS011;5283;48.876;8.962;2023-06-22T14:49:26;12.95;;;4.30;;
10471;SDS011;5283;48.876;8.962;2023-06-22T14:51:52;14.38;;;3.85;;
10471;SDS011;5283;48.876;8.962;2023-06-22T14:54:19;10.30;;;4.00;;
10471;SDS011;5283;48.876;8.962;2023-06-22T14:56:47;11.40;;;4.07;;
10471;SDS011;5283;48.876;8.962;2023-06-22T14:59:14;7.53;;;3.78;;